Tiempo atmosférico en la estación meteorológica de Castellón de la Plana, Almazora, Castelló/Castellón (35 m.)



Fecha
DESCASC
Temp. máxima en grados centígrados (hora)
DESCASC
Temp. mínima en grados centígrados (hora)
DESCASC
Temp. media en grados centígrados
DESCASC
Racha de viento máxima en m/sg (hora)
DESCASC
Velocidad máxima media en intervalos de 10 minutos(hora)
DESCASC
Precipitaciones diarias en mm
DESCASC
Precipitaciones de 00:00 a 06:00 en mm
DESCASC
Precipitaciones de 06:00 a 12:00 en mm
DESCASC
Precipitaciones de 12:00 a 18:00 en mm
DESCASC
Precipitaciones de 18:00 a 24:00 en mm
DESCASC

Gráficas

Temp. máximas Temp. mínimas Temp. medias Precipitaciones Rachas de viento máximas Velocidades máximas media en intervalos de 10 minutos

Datos horarios

Fecha y hora oficial Temperatura (ºC) Velocidad del viento (km/h) Dirección del viento Racha (km/h) Dirección de racha Precipitación (mm) Presión (hPa) Tendencia (hPa) Humedad (%)
2019-10-13 23:00:00 20.9 5 Noroeste 8 Noroeste 0 1011.5 0.6 86
2019-10-13 22:00:00 21.7 2 Norte 5 Este 0 1011.4 0.7 86
2019-10-13 21:00:00 22.2 2 Este 8 Sudeste 0 1011.2 0.8 83
2019-10-13 20:00:00 23 5 Este 13 Este 0 1010.9 0.5 81
2019-10-13 19:00:00 23.9 7 Este 15 Sudeste 0 1010.7 0.3 76
2019-10-13 18:00:00 24.7 9 Sudeste 18 Este 0 1010.4 -0.2 72
2019-10-13 17:00:00 25.3 11 Sudeste 20 Este 0 1010.4 -0.9 71
2019-10-13 16:00:00 25.8 10 Sudeste 21 Sudeste 0 1010.4 -1.4 67
2019-10-13 15:00:00 26.4 10 Sudeste 22 Sudeste 0 1010.6 -1.5 61
2019-10-13 14:00:00 26.3 11 Este 19 Este 0 1011.3 -0.6 63
2019-10-13 13:00:00 26.3 8 Sudeste 17 Sudeste 0 1011.8 -0.1 65
2019-10-13 12:00:00 25.4 3 Sudeste 10 Oeste 0 1012.1 0.7 67
2019-10-13 11:00:00 22.6 3 Noroeste 17 Oeste 0 1011.9 1 77
2019-10-13 10:00:00 20.4 10 Oeste 17 Oeste 0 1011.9 0.8 79
2019-10-13 09:00:00 18.8 8 Oeste 15 Oeste 0 1011.4 0.5 86
2019-10-13 08:00:00 18.9 8 Oeste 13 Oeste 0 1010.9 -0.3 87
2019-10-13 07:00:00 19.3 5 Noroeste 14 Noroeste 0 1011.1 -0.3 86
2019-10-13 06:00:00 19.4 7 Noroeste 15 Oeste 0 1010.9 -0.9 87
2019-10-13 05:00:00 19.4 8 Oeste 14 Oeste 0 1011.2 -0.9 89
2019-10-13 04:00:00 19.5 7 Oeste 12 Oeste 0 1011.4 -1.1 89
2019-10-13 03:00:00 19.8 5 Noroeste 9 Noroeste 0 1011.8 -0.8 88
2019-10-13 02:00:00 20.3 6 Noroeste 9 Noroeste 0 1012.1 -0.3 87
2019-10-13 01:00:00 20.6 6 Oeste 10 Oeste 0 1012.5 0.4 87
2019-10-13 00:00:00 20.9 5 Noroeste 9 Noroeste 0 1012.6 0.5 84
2019-10-12 23:00:00 22 5 Norte 10 Norte 0 1012.4 0.5 85
2019-10-12 22:00:00 22.1 6 Nordeste 10 Nordeste 0 1012.1 0.2 85
2019-10-12 21:00:00 22.2 4 Nordeste 11 Este 0 1012.1 0.2 84
2019-10-12 20:00:00 22.8 5 Nordeste 15 Este 0 1011.9 -0.5 82
2019-10-12 19:00:00 23.3 9 Este 22 Este 0 1011.9 -0.5 80
2019-10-12 18:00:00 23.8 12 Este 22 Este 0 1011.9 -1.1 78
2019-10-12 17:00:00 24.2 12 Este 21 Sudeste 0 1012.4 -1.3 77
2019-10-12 16:00:00 24.5 13 Este 25 Sudeste 0 1012.4 -1.7 74
2019-10-12 15:00:00 24.9 13 Este 23 Este 0 1013 -1.5 71
2019-10-12 14:00:00 24.5 11 Este 21 Sudeste 0 1013.7 -0.6 70
2019-10-12 13:00:00 25.6 5 Nordeste 16 Este 0 1014.1 0 63
2019-10-12 12:00:00 24.5 6 Este 15 Este 0 1014.5 1 69
2019-10-12 11:00:00 22.6 4 Nordeste 7 Oeste 0 1014.3 1.3 79
2019-10-12 10:00:00 20.8 5 Oeste 7 Noroeste 0 1014.1 1.1 84
2019-10-12 09:00:00 19.6 5 Noroeste 10 Oeste 0 1013.5 0.6 87
2019-10-12 08:00:00 19.6 4 Noroeste 7 Noroeste 0 1013 -0.3 86
2019-10-12 07:00:00 19.8 6 Oeste 9 Oeste 0 1013 -0.7 86
2019-10-12 06:00:00 19.8 3 Noroeste 9 Noroeste 0 1012.9 -1.3 86
2019-10-12 05:00:00 19.9 5 Noroeste 8 Noroeste 0 1013.3 -0.8 88
2019-10-12 04:00:00 20.3 0 Calma 5 Noroeste 0 1013.7 -0.8 87
2019-10-12 03:00:00 20.8 2 Norte 5 Sudoeste 0 1014.2 -0.6 85
2019-10-12 02:00:00 20.9 2 Sudoeste 5 Sudoeste 0 1014.1 -0.5 85
2019-10-12 01:00:00 21.4 3 Sudoeste 7 Sur 0 1014.5 0.1 84
2019-10-12 00:00:00 21.5 4 Sur 8 Sur 0 1014.8 0.6 83
2019-10-11 23:00:00 21.5 3 Sur 6 Sur 0 1014.6 0.9 83
2019-10-11 22:00:00 21.4 3 Sur 8 Sur 0 1014.4 0.7 84
2019-10-11 21:00:00 22 6 Sur 12 Sur 0 1014.2 0.4 81
2019-10-11 20:00:00 22.6 6 Sur 15 Sur 0 1013.7 -0.1 78
2019-10-11 19:00:00 23.4 9 Sur 20 Sur 0 1013.7 -0.4 74
2019-10-11 18:00:00 24.5 9 Sur 25 Sur 0 1013.8 -0.8 71
2019-10-11 17:00:00 25.3 13 Sur 28 Sur 0 1013.8 -1.7 65
2019-10-11 16:00:00 26 14 Sur 28 Sur 0 1014.1 -2.1 64
2019-10-11 15:00:00 26.9 14 Sur 26 Sur 0 1014.6 -2 59
2019-10-11 14:00:00 27.4 15 Sur 27 Sur 0 1015.5 -1.3 53
2019-10-11 13:00:00 27.4 12 Sur 26 Sur 0 1016.2 -0.2 54
2019-10-11 12:00:00 25.4 9 Sudoeste 19 Sur 0 1016.6 0.7 61
2019-10-11 11:00:00 23.2 4 Sur 8 Sur 0 1016.8 1.3 69
2019-10-11 10:00:00 21.7 3 Sur 7 Sur 0 1016.4 0.9 74
2019-10-11 09:00:00 20.9 2 Norte 5 Sur 0 1015.9 0.4 76
2019-10-11 08:00:00 20.8 2 Sudoeste 4 Sur 0 1015.5 0.1 77
2019-10-11 07:00:00 20.6 0 Calma 5 Norte 0 1015.5 -0.2 75
2019-10-11 06:00:00 20.6 0 Calma 5 Norte 0 1015.5 -0.7 74
2019-10-11 05:00:00 20.5 0 Calma 6 Norte 0 1015.4 -1 75
2019-10-11 04:00:00 20.5 4 Norte 6 Norte 0 1015.7 -0.9 73
2019-10-11 03:00:00 20.3 4 Noroeste 7 Noroeste 0 1016.2 -0.5 73
2019-10-11 02:00:00 20.3 3 Noroeste 7 Noroeste 0 1016.4 -0.4 74
2019-10-11 01:00:00 20.2 3 Noroeste 7 Norte 0 1016.6 0.2 73
2019-10-11 00:00:00 19.7 3 Noroeste 6 Noroeste 0 1016.7 0.7 75
2019-10-10 23:00:00 19.8 3 Noroeste 7 Norte 0 1016.8 1.2 75
2019-10-10 22:00:00 21.1 5 Nordeste 9 Nordeste 0 1016.4 0.8 73
2019-10-10 21:00:00 21.2 3 Este 7 Nordeste 0 1016 0.5 71
2019-10-10 20:00:00 21.5 3 Nordeste 10 Este 0 1015.6 0.1 68
2019-10-10 19:00:00 21.9 5 Este 15 Este 0 1015.6 -0.2 66
2019-10-10 18:00:00 22.3 6 Este 18 Este 0 1015.5 -0.5 62
2019-10-10 17:00:00 22.9 6 Este 22 Este 0 1015.5 -1 51
2019-10-10 16:00:00 23.5 9 Este 24 Este 0 1015.8 -1.1 48
2019-10-10 15:00:00 23.6 10 Este 22 Sudeste 0 1016 -1 50
2019-10-10 14:00:00 23.5 6 Este 17 Este 0 1016.5 -0.4 48
2019-10-10 13:00:00 23.3 6 Este 21 Este 0 1016.9 0.5 48
2019-10-10 12:00:00 22.8 7 Este 14 Sudeste 0 1017 1.2 46
2019-10-10 11:00:00 22.3 5 Nordeste 14 Este 0 1016.9 1.9 47
2019-10-10 10:00:00 21.3 3 Este 10 Este 0 1016.4 1.6 57
2019-10-10 09:00:00 20.7 4 Nordeste 9 Este 0 1015.8 1.2 60
2019-10-10 08:00:00 20.7 5 Noroeste 9 Noroeste 0 1015 0.5 76
2019-10-10 07:00:00 20.9 4 Norte 18 Norte 0 1014.8 0.4 64
2019-10-10 06:00:00 20.9 8 Nordeste 16 Norte 0 1014.6 0.1 71
2019-10-10 05:00:00 20.7 6 Nordeste 18 Nordeste 0 1014.5 0.1 74
2019-10-10 04:00:00 20.6 9 Nordeste 26 Nordeste 0 1014.4 0 79
2019-10-10 03:00:00 22 8 Nordeste 26 Nordeste 0 1014.5 0.4 73
2019-10-10 02:00:00 22.4 3 Nordeste 5 Este 0 1014.4 0.6 79
2019-10-10 01:00:00 22.4 4 Sudeste 6 Este 0 1014.4 1.2 79
2019-10-10 00:00:00 22.5 3 Este 5 Este 0 1014.1 1.4 78
2019-10-09 23:00:00 22.7 4 Este 7 Este 0 1013.8 1.7 77
2019-10-09 22:00:00 22.9 4 Este 7 Sudeste 0 1013.2 1.9 77
2019-10-09 21:00:00 22.9 3 Sudeste 8 Este 0 1012.7 1.8 76
2019-10-09 20:00:00 23 6 Este 11 Sudeste 0 1012.1 1.4 76
2019-10-09 19:00:00 23.5 8 Este 17 Este 0 1011.3 0.7 74
2019-10-09 18:00:00 24.3 10 Este 21 Este 0 1010.9 0.3 71
2019-10-09 17:00:00 25.1 11 Este 21 Sudeste 0 1010.7 -0.2 68
2019-10-09 16:00:00 25.7 10 Este 21 Sudeste 0 1010.6 -0.6 65
2019-10-09 15:00:00 26.2 11 Sudeste 20 Este 0 1010.6 -1.1 65
2019-10-09 14:00:00 25.4 8 Sudeste 17 Este 0 1010.9 -0.7 69
2019-10-09 13:00:00 25.5 10 Este 17 Sudeste 0 1011.2 -0.2 69
2019-10-09 12:00:00 25.1 8 Sudeste 15 Este 0 1011.7 1 69
2019-10-09 11:00:00 22.8 5 Sur 10 Sudeste 0 1011.6 1.3 76
2019-10-09 10:00:00 20.6 7 Oeste 19 Oeste 0 1011.4 1.1 78
2019-10-09 09:00:00 19.1 12 Oeste 18 Noroeste 0 1010.7 0.5 81
2019-10-09 08:00:00 18.9 9 Oeste 16 Oeste 0 1010.3 0.3 84
2019-10-09 07:00:00 19.1 9 Oeste 15 Oeste 0 1010.3 0.2 85
2019-10-09 06:00:00 19.3 8 Oeste 14 Oeste 0 1010.2 -0.3 86
2019-10-09 05:00:00 18.7 6 Noroeste 10 Oeste 0 1010 -0.8 87
2019-10-09 04:00:00 18.8 4 Noroeste 9 Noroeste 0 1010.1 -1 86
2019-10-09 03:00:00 19.1 4 Noroeste 10 Noroeste 0 1010.5 -1 86
2019-10-09 02:00:00 19.6 6 Noroeste 12 Noroeste 0 1010.8 -0.4 87
2019-10-09 01:00:00 19.9 7 Oeste 11 Noroeste 0 1011.1 -0.1 87
2019-10-09 00:00:00 20.7 3 Noroeste 6 Noroeste 0 1011.5 0.1 85
2019-10-08 23:00:00 21.7 2 Noroeste 5 Noroeste 0 1011.2 -0.1 83
2019-10-08 22:00:00 22 3 Sur 7 Sur 0 1011.2 0.1 83
2019-10-08 21:00:00 22.5 4 Sur 14 Sudeste 0 1011.4 0.1 81
2019-10-08 20:00:00 23.2 6 Sudeste 15 Sur 0 1011.3 -0.1 77
2019-10-08 19:00:00 24.4 9 Sur 19 Sudeste 0 1011.1 -0.8 72
2019-10-08 18:00:00 25.2 9 Sur 20 Sur 0 1011.3 -0.9 65
2019-10-08 17:00:00 25.5 12 Sur 22 Sur 0 1011.4 -1.6 62
2019-10-08 16:00:00 25.9 13 Sudeste 24 Sur 0 1011.9 -2 59
2019-10-08 15:00:00 26.7 12 Sur 24 Sur 0 1012.2 -2.1 56
2019-10-08 14:00:00 26.6 13 Sur 22 Sudeste 0 1013 -1.5 55
2019-10-08 13:00:00 26.4 12 Sur 24 Sur 0 1013.9 -0.5 57
2019-10-08 12:00:00 25 10 Sudeste 19 Sudeste 0 1014.3 0.4 59
2019-10-08 11:00:00 21.6 6 Sudoeste 11 Sudoeste 0 1014.5 0.9 66
2019-10-08 10:00:00 19.2 5 Oeste 10 Oeste 0 1014.4 1 70
2019-10-08 09:00:00 17 5 Oeste 11 Oeste 0 1013.9 0.9 78
2019-10-08 08:00:00 16.9 8 Oeste 14 Noroeste 0 1013.6 0.3 77
2019-10-08 07:00:00 17.1 6 Noroeste 15 Oeste 0 1013.4 0.2 76
2019-10-08 06:00:00 17.2 5 Noroeste 15 Noroeste 0 1013 -0.5 78
2019-10-08 05:00:00 17.5 7 Oeste 13 Oeste 0 1013.3 0 78
2019-10-08 04:00:00 17.6 6 Oeste 14 Noroeste 0 1013.2 0.1 78
2019-10-08 03:00:00 17.8 5 Noroeste 12 Noroeste 0 1013.5 0.6 79
2019-10-08 02:00:00 18.1 6 Oeste 10 Oeste 0 1013.3 0.5 78
2019-10-08 01:00:00 18.3 4 Noroeste 8 Noroeste 0 1013.1 0.5 78
2019-10-08 00:00:00 18.8 3 Noroeste 7 Noroeste 0 1012.9 0.9 76
2019-10-07 23:00:00 19.7 2 Noroeste 5 Noroeste 0 1012.8 1.1 74
2019-10-07 22:00:00 20.3 0 Calma 7 Noroeste 0 1012.6 1.2 73
2019-10-07 21:00:00 20.7 4 Sudoeste 8 Sudoeste 0 1012 1.2 73
2019-10-07 20:00:00 21.2 3 Sur 8 Sur 0 1011.7 0.9 74
2019-10-07 19:00:00 22.2 5 Sur 15 Sur 0 1011.4 0.7 66
2019-10-07 18:00:00 23.1 7 Sudeste 23 Sur 0 1010.8 -0.1 60
2019-10-07 17:00:00 23.5 13 Sudeste 25 Sudeste 0 1010.8 -0.5 54
2019-10-07 16:00:00 24.6 9 Sudeste 22 Sur 0 1010.7 -0.4 47
2019-10-07 15:00:00 24.9 12 Este 24 Este 0 1010.9 -0.1 41
2019-10-07 14:00:00 25.4 9 Este 25 Este 0 1011.3 0.7 42
2019-10-07 13:00:00 25.2 13 Este 22 Sudeste 0 1011.1 1.1 40
2019-10-07 12:00:00 25.4 13 Este 26 Este 0 1011 1.5 40
2019-10-07 11:00:00 23 8 Sudeste 14 Sudeste 0 1010.6 1.4 46
2019-10-07 10:00:00 20.4 5 Sudoeste 11 Sudoeste 0 1010 1 52
2019-10-07 09:00:00 19.8 4 Sudeste 15 Oeste 0 1009.5 0 57
2019-10-07 08:00:00 19.2 3 Noroeste 12 Norte 0 1009.2 -0.5 64
2019-10-07 07:00:00 18.5 7 Noroeste 15 Noroeste 0 1009 -1.3 71
2019-10-07 06:00:00 18.1 7 Oeste 13 Oeste 0 1009.5 -1.4 74
2019-10-07 05:00:00 18.1 6 Noroeste 9 Noroeste 0 1009.7 -1.2 75
2019-10-07 04:00:00 18.6 6 Oeste 10 Oeste 0 1010.3 -1.4 74
2019-10-07 03:00:00 19 5 Noroeste 13 Noroeste 0 1010.9 -0.9 74
2019-10-07 02:00:00 19.6 4 Noroeste 11 Oeste 0 1010.9 -0.7 82
2019-10-07 01:00:00 20.1 5 Oeste 9 Noroeste 0 1011.7 0.3 86
2019-10-07 00:00:00 20.4 3 Noroeste 8 Noroeste 0 1011.8 0.9 87
2019-10-06 23:00:00 21 3 Noroeste 6 Noroeste 0 1011.6 0.9 85
2019-10-06 22:00:00 21.6 0 Calma 8 Noroeste 0 1011.4 1.2 84
2019-10-06 21:00:00 22.1 4 Sudoeste 9 Sur 0 1010.9 0.4 84
2019-10-06 20:00:00 22.9 6 Sur 11 Sur 0 1010.7 -0.3 80
2019-10-06 19:00:00 24 6 Sur 13 Sudeste 0 1010.2 -1.1 75
2019-10-06 18:00:00 24.8 7 Sudeste 14 Este 0 1010.5 -1.1 70
2019-10-06 17:00:00 24.9 6 Sudeste 19 Este 0 1011 -1.4 69
2019-10-06 16:00:00 25.5 8 Sudeste 20 Nordeste 0 1011.3 -1.7 67
2019-10-06 15:00:00 26.1 10 Sudeste 19 Sur 0 1011.6 -1.4 65
2019-10-06 14:00:00 25.5 9 Sudeste 21 Este 0 1012.4 -0.5 68
2019-10-06 13:00:00 26.5 8 Sudeste 20 Este 0 1013 0.4 64
2019-10-06 12:00:00 24.8 7 Este 14 Este 0 1013 1.1 65
2019-10-06 11:00:00 22 4 Sur 8 Sur 0 1012.9 1.7 75
2019-10-06 10:00:00 19.5 5 Oeste 13 Noroeste 0 1012.6 1.6 79
2019-10-06 09:00:00 17.5 9 Oeste 14 Oeste 0 1011.9 0.8 83
2019-10-06 08:00:00 17.4 8 Oeste 13 Oeste 0 1011.2 0.4 84
2019-10-06 07:00:00 17.5 6 Oeste 11 Noroeste 0 1011 0.2 84
2019-10-06 06:00:00 17.5 6 Noroeste 13 Oeste 0 1011.1 -0.1 85
2019-10-06 05:00:00 17.7 6 Noroeste 10 Noroeste 0 1010.8 -0.2 84
2019-10-06 04:00:00 18.1 4 Noroeste 12 Oeste 0 1010.8 -0.2 83
2019-10-06 03:00:00 18.5 7 Oeste 14 Oeste 0 1011.2 -0.2 81
2019-10-06 02:00:00 19 6 Noroeste 17 Noroeste 0 1011 -0.2 80
2019-10-06 01:00:00 19.2 4 Noroeste 10 Oeste 0 1011 0.1 79
2019-10-06 00:00:00 19.6 7 Oeste 10 Noroeste 0 1011.4 1 77
2019-10-05 23:00:00 20.5 3 Noroeste 5 Noroeste 0 1011.2 1.2 74
2019-10-05 22:00:00 21.1 3 Noroeste 5 Norte 0 1010.9 1.2 72
2019-10-05 21:00:00 21.5 2 Sudoeste 5 Sudoeste 0 1010.4 0.9 71
2019-10-05 20:00:00 22.5 4 Sur 10 Sur 0 1010 0.7 67
2019-10-05 19:00:00 24.1 5 Sur 13 Este 0 1009.7 0.3 61
2019-10-05 18:00:00 25.1 6 Sur 17 Este 0 1009.5 -0.3 54
2019-10-05 17:00:00 24.9 7 Sudeste 18 Sudeste 0 1009.3 -1.1 58
2019-10-05 16:00:00 25.1 9 Este 20 Este 0 1009.4 -1.3 57
2019-10-05 15:00:00 25.6 9 Sudeste 23 Este 0 1009.8 -0.9 58
2019-10-05 14:00:00 25.6 10 Este 25 Sudeste 0 1010.4 -0.1 58
2019-10-05 13:00:00 26.2 11 Sudeste 21 Este 0 1010.7 0.7 58
2019-10-05 12:00:00 25.6 9 Sudeste 18 Sudeste 0 1010.7 1 59
2019-10-05 11:00:00 23.3 5 Sudoeste 10 Sur 0 1010.5 1.4 62
2019-10-05 10:00:00 20.6 6 Noroeste 13 Oeste 0 1010 1.3 55
2019-10-05 09:00:00 18.4 6 Noroeste 13 Noroeste 0 1009.7 0.8 60
2019-10-05 08:00:00 18.7 8 Oeste 15 Oeste 0 1009.1 0.3 58
2019-10-05 07:00:00 18.4 7 Oeste 13 Oeste 0 1008.7 0.2 61
2019-10-05 06:00:00 18.7 6 Oeste 14 Noroeste 0 1008.9 0.1 61
2019-10-05 05:00:00 18.7 4 Noroeste 15 Oeste 0 1008.8 0.1 62
2019-10-05 04:00:00 19.2 5 Noroeste 18 Oeste 0 1008.5 -0.2 61
2019-10-05 03:00:00 19 8 Oeste 13 Oeste 0 1008.8 0 62
2019-10-05 02:00:00 18.9 8 Oeste 13 Noroeste 0 1008.7 -0.1 66
2019-10-05 01:00:00 18.6 4 Noroeste 17 Noroeste 0 1008.7 -0.2 74
2019-10-05 00:00:00 19.3 8 Noroeste 16 Noroeste 0 1008.8 -0.1 70
2019-10-04 23:00:00 19.9 6 Oeste 9 Noroeste 0 1008.8 0 72
2019-10-04 22:00:00 20.7 4 Noroeste 8 Oeste 0 1008.9 0.3 69
2019-10-04 21:00:00 22.1 3 Noroeste 5 Noroeste 0 1008.9 0.4 65
2019-10-04 20:00:00 22.9 0 Calma 9 Este 0 1008.8 0.3 62
2019-10-04 19:00:00 24.1 5 Sudeste 15 Este 0 1008.6 -0.5 58
2019-10-04 18:00:00 25.4 8 Sudeste 19 Este 0 1008.5 -1.1 57
2019-10-04 17:00:00 26.7 8 Sudeste 17 Este 0 1008.5 -2.1 42
2019-10-04 16:00:00 27.4 9 Sudeste 18 Sur 0 1009.1 -2 38
2019-10-04 15:00:00 27.5 9 Sudeste 19 Este 0 1009.6 -1.8 39
2019-10-04 14:00:00 27.8 10 Sudeste 18 Este 0 1010.6 -0.9 41
2019-10-04 13:00:00 27.7 10 Este 18 Este 0 1011.1 -0.3 38
2019-10-04 12:00:00 26.4 5 Nordeste 11 Nordeste 0 1011.4 0.4 36
2019-10-04 11:00:00 23.4 5 Oeste 18 Noroeste 0 1011.5 0.8 38
2019-10-04 10:00:00 20.7 9 Noroeste 20 Oeste 0 1011.4 1 43
2019-10-04 09:00:00 17.4 9 Oeste 21 Noroeste 0 1011 0.5 53
2019-10-04 08:00:00 16.3 9 Oeste 19 Noroeste 0 1010.7 0 58
2019-10-04 07:00:00 17.3 10 Noroeste 19 Oeste 0 1010.4 -0.3 55
2019-10-04 06:00:00 16.4 9 Noroeste 20 Noroeste 0 1010.5 -0.7 58
2019-10-04 05:00:00 16.9 9 Oeste 19 Oeste 0 1010.7 -0.6 61
2019-10-04 04:00:00 17.4 11 Oeste 20 Oeste 0 1010.7 -0.8 65
2019-10-04 03:00:00 17.5 9 Oeste 19 Oeste 0 1011.2 -0.2 64
2019-10-04 02:00:00 17.6 12 Oeste 19 Noroeste 0 1011.3 0 67
2019-10-04 01:00:00 18.3 8 Oeste 15 Oeste 0 1011.5 0.3 68
2019-10-04 00:00:00 18.9 7 Oeste 13 Oeste 0 1011.4 0.7 69
2019-10-03 23:00:00 18.9 8 Oeste 13 Noroeste 0 1011.3 1.1 70
2019-10-03 22:00:00 20.4 0 Calma 6 Sudoeste 0 1011.2 1.6 66
2019-10-03 21:00:00 21.1 3 Sur 10 Sur 0 1010.7 1.2 65
2019-10-03 20:00:00 21.9 4 Sudeste 15 Sur 0 1010.2 0.7 59
2019-10-03 19:00:00 23.4 9 Sur 16 Sudeste 0 1009.6 -0.2 54
2019-10-03 18:00:00 24.3 7 Sur 19 Sur 0 1009.5 -0.8 47
2019-10-03 17:00:00 25 9 Sur 23 Sur 0 1009.5 -1.4 43
2019-10-03 16:00:00 25.6 12 Sur 22 Sudeste 0 1009.8 -1.6 38
2019-10-03 15:00:00 26.3 12 Sur 22 Sur 0 1010.3 -1.2 36
2019-10-03 14:00:00 25.9 9 Sur 18 Sudeste 0 1010.9 -0.7 39
2019-10-03 13:00:00 25.7 8 Sur 14 Sur 0 1011.4 -0.2 36
2019-10-03 12:00:00 24.2 6 Sudoeste 14 Oeste 0 1011.5 0 34
2019-10-03 11:00:00 21.2 8 Noroeste 16 Oeste 0 1011.6 0.3 38
2019-10-03 10:00:00 19.2 8 Noroeste 18 Oeste 0 1011.6 1 47
2019-10-03 09:00:00 18 11 Oeste 22 Oeste 0 1011.5 0.9 51
2019-10-03 08:00:00 18.1 14 Oeste 21 Oeste 0 1011.3 0.9 47
2019-10-03 07:00:00 18.4 15 Oeste 23 Oeste 0 1010.6 0.1 46
2019-10-03 06:00:00 18.3 10 Oeste 23 Oeste 0 1010.6 -0.2 45
2019-10-03 05:00:00 18.8 13 Oeste 21 Oeste 0 1010.4 -0.5 45
2019-10-03 04:00:00 18.6 8 Oeste 23 Noroeste 0 1010.5 -0.4 47
2019-10-03 03:00:00 19.2 13 Oeste 21 Noroeste 0 1010.8 -0.1 46
2019-10-03 02:00:00 19.6 8 Oeste 19 Noroeste 0 1010.9 0.2 45
2019-10-03 01:00:00 20.4 8 Noroeste 17 Noroeste 0 1010.9 0.6 42
2019-10-03 00:00:00 21.6 7 Oeste 25 Nordeste 0 1010.9 1.3 40
2019-10-02 23:00:00 23.2 14 Norte 33 Norte 0 1010.7 1.8 35
2019-10-02 22:00:00 23.7 13 Norte 31 Norte 0 1010.3 1.9 33
2019-10-02 21:00:00 23 3 Noroeste 10 Noroeste 0 1009.6 1.6 38
2019-10-02 20:00:00 23.7 6 Sudoeste 10 Sur 0 1008.9 1.4 49
2019-10-02 19:00:00 25.3 6 Sur 17 Sur 0 1008.4 1 45
2019-10-02 18:00:00 26.3 11 Sur 21 Sudeste 0 1008 0.6 42
2019-10-02 17:00:00 27.5 11 Sur 21 Este 0 1007.5 -0.4 37
2019-10-02 16:00:00 27.6 13 Sudeste 26 Sudeste 0 1007.4 -1 38
2019-10-02 15:00:00 28.9 9 Sudoeste 22 Sur 0 1007.4 -1.4 32
2019-10-02 14:00:00 28 9 Sudoeste 23 Sur 0 1007.9 -1 35
2019-10-02 13:00:00 27.1 11 Sur 22 Sur 0 1008.4 -0.3 38
2019-10-02 12:00:00 25.6 9 Sudoeste 15 Sur 0 1008.8 0.7 37
2019-10-02 11:00:00 23.2 6 Sudoeste 14 Sudoeste 0 1008.9 1.7 45
2019-10-02 10:00:00 22.3 3 Noroeste 17 Norte 0 1008.7 1.9 49
2019-10-02 09:00:00 21.3 9 Norte 22 Norte 0 1008.1 1.9 49
2019-10-02 08:00:00 20.1 6 Noroeste 18 Noroeste 0 1007.2 1.4 52
2019-10-02 07:00:00 18.9 5 Noroeste 9 Norte 0 1006.8 1.3 61
2019-10-02 06:00:00 19.4 3 Noroeste 8 Noroeste 0 1006.2 0.4 60
2019-10-02 05:00:00 21.1 4 Noroeste 8 Oeste 0 1005.8 0.5 53
2019-10-02 04:00:00 23.2 5 Oeste 13 Nordeste 0 1005.5 0.6 42
2019-10-02 03:00:00 24 9 Norte 19 Norte 0 1005.8 1.2 40
2019-10-02 02:00:00 23.5 5 Oeste 13 Oeste 0 1005.3 1 46
2019-10-02 01:00:00 23.4 9 Oeste 17 Oeste 0 1004.9 0.8 57
2019-10-02 00:00:00 22.7 10 Oeste 17 Oeste 0 1004.6 1.1 81
2019-10-01 23:00:00 22.7 6 Noroeste 13 Noroeste 0 1004.3 0.9 87
2019-10-01 22:00:00 22.9 6 Noroeste 12 Oeste 0 1004.1 1.1 86
2019-10-01 21:00:00 23.5 4 Norte 9 Norte 0 1003.5 0.8 84
2019-10-01 20:00:00 23.7 5 Nordeste 12 Nordeste 0 1003.4 0.1 83
2019-10-01 19:00:00 24.8 4 Este 14 Este 0 1003 -0.4 78
2019-10-01 18:00:00 25.5 7 Este 19 Este 0 1002.7 -1.2 74
2019-10-01 17:00:00 26.2 10 Este 21 Sudeste 0 1003.3 -1.2 71
2019-10-01 16:00:00 27.1 9 Este 22 Este 0 1003.4 -2.1 59
2019-10-01 15:00:00 27.3 10 Sudeste 19 Sudeste 0 1003.9 -2.2 60
2019-10-01 14:00:00 27.5 8 Este 16 Sudeste 0 1004.5 -2 58
2019-10-01 13:00:00 27.2 8 Sudeste 15 Este 0 1005.5 -0.8 60
2019-10-01 12:00:00 25.6 4 Sudeste 9 Sudeste 0 1006.1 -0.1 62
2019-10-01 11:00:00 22.8 4 Nordeste 6 Nordeste 0 1006.5 0.5 75
2019-10-01 10:00:00 20.7 5 Norte 10 Noroeste 0 1006.3 0.3 86
2019-10-01 09:00:00 19.1 6 Oeste 10 Oeste 0 1006.2 0.1 89
2019-10-01 08:00:00 19 4 Noroeste 12 Oeste 0 1006 -0.7 89
2019-10-01 07:00:00 19.8 5 Noroeste 11 Noroeste 0 1006 -1.3 87
2019-10-01 06:00:00 20.4 5 Noroeste 10 Noroeste 0 1006.1 -2.2 89
2019-10-01 05:00:00 20.9 6 Oeste 12 Sudoeste 0 1006.7 -2 91
2019-10-01 04:00:00 21 4 Noroeste 6 Noroeste 0 1007.3 -1.8 90
2019-10-01 03:00:00 21.3 3 Noroeste 6 Noroeste 0 1008.3 -1.4 89
2019-10-01 02:00:00 21.8 0 Calma 4 Norte 0 1008.7 -1 89
2019-10-01 01:00:00 22.4 2 Noroeste 4 Noroeste 0 1009.1 -0.8 87
2019-10-01 00:00:00 23 0 Calma 5 Este 0 1009.7 -0.1 85
2019-09-30 23:00:00 23.5 3 Nordeste 7 Nordeste 0 1009.7 0.2 84
2019-09-30 22:00:00 23.5 4 Nordeste 8 Nordeste 0 1009.9 0.5 85
2019-09-30 21:00:00 23.7 5 Nordeste 8 Nordeste 0 1009.8 0.2 85
2019-09-30 20:00:00 23.9 3 Nordeste 15 Sudeste 0 1009.5 -0.3 82
2019-09-30 19:00:00 24.9 9 Este 26 Sudeste 0 1009.4 -1.1 78
2019-09-30 18:00:00 25.9 9 Este 23 Este 0 1009.6 -1.2 73
2019-09-30 17:00:00 26.5 9 Este 26 Este 0 1009.8 -1.8 72
2019-09-30 16:00:00 27.1 11 Este 25 Este 0 1010.5 -1.6 65
2019-09-30 15:00:00 27.7 10 Este 30 Este 0 1010.8 -1.5 60
2019-09-30 14:00:00 27.3 9 Este 30 Este 0 1011.6 -0.6 62
2019-09-30 13:00:00 27.1 9 Nordeste 21 Este 0 1012.1 0.3 63
2019-09-30 12:00:00 25.9 8 Nordeste 19 Nordeste 0 1012.3 1 67
2019-09-30 11:00:00 24.4 8 Nordeste 20 Nordeste 0 1012.2 1.6 74
2019-09-30 10:00:00 21.3 5 Noroeste 11 Noroeste 0 1011.8 1.7 83
2019-09-30 09:00:00 18.9 4 Noroeste 9 Noroeste 0 1011.3 1.5 87
2019-09-30 08:00:00 18.4 4 Noroeste 9 Oeste 0 1010.6 0.9 89
2019-09-30 07:00:00 18.9 6 Noroeste 10 Noroeste 0 1010.1 0.4 96
2019-09-30 06:00:00 20.1 4 Noroeste 8 Noroeste 0 1009.8 -0.1 96
2019-09-30 05:00:00 20.6 4 Noroeste 9 Oeste 0 1009.7 -0.2 95
2019-09-30 04:00:00 20.2 3 Noroeste 8 Norte 0 1009.7 -0.3 87
2019-09-30 03:00:00 20.8 4 Noroeste 8 Oeste 0 1009.9 -0.2 87
2019-09-30 02:00:00 21 5 Noroeste 10 Oeste 0 1009.9 -0.3 87
2019-09-30 01:00:00 21.4 4 Noroeste 15 Oeste 0 1010 -0.3 85
2019-09-30 00:00:00 21.8 8 Noroeste 12 Noroeste 0 1010.1 0.3 85
2019-09-29 23:00:00 22.2 5 Noroeste 9 Noroeste 0 1010.2 0.8 83
2019-09-29 22:00:00 23.3 3 Noroeste 6 Noroeste 0 1010.3 1 82
2019-09-29 21:00:00 23.9 4 Nordeste 6 Este 0 1009.8 0.4 84
2019-09-29 20:00:00 24.7 4 Este 8 Nordeste 0 1009.4 -0.4 79
2019-09-29 19:00:00 25.7 3 Sudeste 13 Sudeste 0 1009.3 -0.8 69
2019-09-29 18:00:00 26.5 7 Sudeste 14 Sudeste 0 1009.4 -1.3 65
2019-09-29 17:00:00 27 8 Sur 18 Sur 0 1009.8 -1.5 65
2019-09-29 16:00:00 27.7 10 Sudeste 22 Sur 0 1010.1 -1.5 64
2019-09-29 15:00:00 28.2 12 Sur 21 Sur 0 1010.7 -1.3 61
2019-09-29 14:00:00 28.4 11 Sur 22 Sur 0 1011.3 -0.9 57
2019-09-29 13:00:00 27.9 8 Sur 17 Sur 0 1011.6 -0.5 58
2019-09-29 12:00:00 26.4 6 Sur 12 Sur 0 1012 0.2 63
2019-09-29 11:00:00 23.2 2 Noroeste 10 Oeste 0 1012.2 0.5 68
2019-09-29 10:00:00 21 6 Oeste 11 Oeste 0 1012.1 0.5 78
2019-09-29 09:00:00 19 3 Noroeste 11 Oeste 0 1011.8 -0.1 89
2019-09-29 08:00:00 18.8 6 Oeste 10 Noroeste 0 1011.7 -0.5 89
2019-09-29 07:00:00 19.2 4 Noroeste 8 Noroeste 0 1011.6 -0.9 88
2019-09-29 06:00:00 19.3 4 Noroeste 8 Noroeste 0 1011.9 -1.2 89
2019-09-29 05:00:00 19.4 3 Noroeste 5 Oeste 0 1012.2 -1.1 91
2019-09-29 04:00:00 19.7 4 Noroeste 8 Noroeste 0 1012.5 -1 88
2019-09-29 03:00:00 20.3 2 Oeste 7 Noroeste 0 1013.1 -0.7 88
2019-09-29 02:00:00 20.3 4 Noroeste 8 Oeste 0 1013.3 -0.5 85
2019-09-29 01:00:00 20.6 5 Noroeste 8 Noroeste 0 1013.5 -0.2 83
2019-09-29 00:00:00 21.3 4 Oeste 6 Noroeste 0 1013.8 0.1 83
2019-09-28 23:00:00 22.1 3 Noroeste 5 Noroeste 0 1013.8 0.2 84
2019-09-28 22:00:00 22.9 3 Este 6 Este 0 1013.7 0.1 84
2019-09-28 21:00:00 23.4 0 Calma 6 Nordeste 0 1013.7 0 81
2019-09-28 20:00:00 24 5 Este 12 Sudeste 0 1013.6 -0.2 77
2019-09-28 19:00:00 25.1 8 Este 15 Sudeste 0 1013.6 -0.7 71
2019-09-28 18:00:00 25.9 8 Sudeste 17 Este 0 1013.7 -0.9 70
2019-09-28 17:00:00 26.1 9 Sudeste 19 Este 0 1013.8 -1.4 68
2019-09-28 16:00:00 26.5 10 Este 25 Sudeste 0 1014.3 -1.2 69
2019-09-28 15:00:00 27.2 9 Este 20 Este 0 1014.6 -0.9 66
2019-09-28 14:00:00 27.2 12 Este 22 Este 0 1015.2 -0.3 64
2019-09-28 13:00:00 27.2 7 Este 23 Este 0 1015.5 0.4 61
2019-09-28 12:00:00 26.8 9 Este 21 Este 0 1015.5 1.2 66
2019-09-28 11:00:00 24.5 8 Nordeste 15 Nordeste 0 1015.5 1.9 74
2019-09-28 10:00:00 21.6 4 Noroeste 13 Oeste 0 1015.1 1.9 82
2019-09-28 09:00:00 20 6 Noroeste 14 Noroeste 0 1014.3 1.4 87
2019-09-28 08:00:00 19.7 6 Noroeste 14 Noroeste 0 1013.6 1 89
2019-09-28 07:00:00 19.7 5 Noroeste 12 Oeste 0 1013.2 0.8 90
2019-09-28 06:00:00 19.8 5 Noroeste 14 Noroeste 0 1012.9 0.2 89
2019-09-28 05:00:00 19.8 5 Noroeste 11 Noroeste 0 1012.6 0 87
2019-09-28 04:00:00 19.9 6 Noroeste 9 Noroeste 0 1012.4 -0.1 88
2019-09-28 03:00:00 20.3 3 Noroeste 6 Noroeste 0 1012.7 0.2 89
2019-09-28 02:00:00 20.5 3 Noroeste 7 Norte 0 1012.6 0.2 87
2019-09-28 01:00:00 21.3 3 Noroeste 6 Noroeste 0 1012.5 0.2 86
2019-09-28 00:00:00 22.1 2 Noroeste 9 Noroeste 0 1012.5 0.6 86
2019-09-27 23:00:00 22.6 3 Noroeste 9 Noroeste 0 1012.4 1.1 85
2019-09-27 22:00:00 23.6 3 Norte 10 Nordeste 0 1012.3 1.2 83
2019-09-27 21:00:00 23.6 5 Nordeste 9 Nordeste 0 1011.9 1 83
2019-09-27 20:00:00 24 6 Nordeste 13 Este 0 1011.3 0.4 80
2019-09-27 19:00:00 25.1 5 Este 14 Este 0 1011.1 0.1 75
2019-09-27 18:00:00 25.7 8 Este 20 Sudeste 0 1010.9 -0.5 72
2019-09-27 17:00:00 26.3 9 Este 21 Este 0 1010.9 -1 68
2019-09-27 16:00:00 26.9 10 Este 19 Sudeste 0 1011 -1.1 66
2019-09-27 15:00:00 27.7 9 Sudeste 21 Este 0 1011.4 -1 64
2019-09-27 14:00:00 27 10 Este 18 Este 0 1011.9 -0.7 63
2019-09-27 13:00:00 27.2 9 Este 17 Este 0 1012.1 -0.3 60
2019-09-27 12:00:00 26.6 5 Sudeste 13 Este 0 1012.4 0.3 61
2019-09-27 11:00:00 23.6 4 Este 9 Nordeste 0 1012.6 0.8 75
2019-09-27 10:00:00 21.3 5 Noroeste 13 Oeste 0 1012.4 1 78
2019-09-27 09:00:00 20 8 Oeste 13 Oeste 0 1012.1 0.8 86
2019-09-27 08:00:00 19.8 7 Oeste 16 Oeste 0 1011.8 0.4 88
2019-09-27 07:00:00 19.9 8 Oeste 14 Oeste 0 1011.4 -0.3 89
2019-09-27 06:00:00 20 6 Noroeste 10 Noroeste 0 1011.3 -0.9 89
2019-09-27 05:00:00 20.4 7 Oeste 11 Noroeste 0 1011.4 -1.2 89
2019-09-27 04:00:00 20.7 6 Oeste 10 Oeste 0 1011.7 -1.3 89
2019-09-27 03:00:00 21 3 Noroeste 7 Noroeste 0 1012.2 -0.9 88
2019-09-27 02:00:00 21.4 5 Noroeste 7 Noroeste 0 1012.6 -0.4 86
2019-09-27 01:00:00 22.2 4 Noroeste 5 Noroeste 0 1013 0.1 85
2019-09-27 00:00:00 22.7 3 Noroeste 5 Nordeste 0 1013.1 0.6 85
2019-09-26 23:00:00 23 3 Nordeste 4 Nordeste 0 1013 0.9 86
2019-09-26 22:00:00 23.1 0 Calma 5 Sur 0 1012.9 0.9 85
2019-09-26 21:00:00 23.6 3 Sur 10 Sur 0 1012.5 0.6 83
2019-09-26 20:00:00 24.2 6 Sur 12 Sur 0 1012.1 0.1 80
2019-09-26 19:00:00 25.1 7 Sur 19 Sur 0 1012 -0.1 75
2019-09-26 18:00:00 25.9 11 Sur 22 Sudeste 0 1011.9 -0.5 71
2019-09-26 17:00:00 26.7 12 Sudeste 26 Sudeste 0 1012 -0.9 64
2019-09-26 16:00:00 28 14 Sur 26 Sudeste 0 1012.1 -1.5 58
2019-09-26 15:00:00 28.4 13 Sur 23 Sudeste 0 1012.4 -1.6 54
2019-09-26 14:00:00 28.5 11 Sur 22 Sur 0 1012.9 -1.2 53
2019-09-26 13:00:00 28.2 10 Sur 19 Sudeste 0 1013.6 -0.2 53
2019-09-26 12:00:00 26.9 7 Sur 16 Sur 0 1014 0.6 52
2019-09-26 11:00:00 23.7 8 Oeste 17 Oeste 0 1014.1 1.1 50
2019-09-26 10:00:00 21.2 10 Oeste 18 Oeste 0 1013.8 1.2 62
2019-09-26 09:00:00 19.5 11 Oeste 19 Oeste 0 1013.4 1.1 69
2019-09-26 08:00:00 19.1 11 Oeste 21 Noroeste 0 1013 0.8 73
2019-09-26 07:00:00 18.9 11 Oeste 17 Oeste 0 1012.6 0.6 78
2019-09-26 06:00:00 19.2 9 Oeste 16 Oeste 0 1012.3 0.2 79
2019-09-26 05:00:00 19.5 6 Oeste 12 Oeste 0 1012.2 0.1 83
2019-09-26 04:00:00 19.9 6 Oeste 9 Oeste 0 1012 -0.2 83
2019-09-26 03:00:00 20 4 Noroeste 11 Oeste 0 1012.1 0 82
2019-09-26 02:00:00 20.6 5 Oeste 8 Noroeste 0 1012.1 0.1 80
2019-09-26 01:00:00 21 3 Noroeste 7 Noroeste 0 1012.2 0.6 77
2019-09-26 00:00:00 21.6 3 Noroeste 6 Oeste 0 1012.1 1.1 75
2019-09-25 23:00:00 22.1 4 Norte 7 Norte 0 1012 1.5 74
2019-09-25 22:00:00 22.4 4 Sudoeste 5 Sudoeste 0 1011.6 1.4 73
2019-09-25 21:00:00 23 3 Sudeste 8 Este 0 1011 1.2 70
2019-09-25 20:00:00 23.8 5 Sudeste 11 Este 0 1010.5 0.8 67
2019-09-25 19:00:00 24.7 8 Sudeste 19 Sudeste 0 1010.2 0.4 63
2019-09-25 18:00:00 25.5 10 Este 19 Sudeste 0 1009.8 -0.2 62
2019-09-25 17:00:00 25.9 9 Este 24 Este 0 1009.7 -0.5 52
2019-09-25 16:00:00 26.5 12 Este 26 Sudeste 0 1009.8 -0.6 49
2019-09-25 15:00:00 27 10 Este 26 Sudeste 0 1010 -0.5 49
2019-09-25 14:00:00 26.8 12 Este 27 Este 0 1010.2 0 52
2019-09-25 13:00:00 26.7 12 Este 26 Este 0 1010.4 1 56
2019-09-25 12:00:00 25.8 10 Este 17 Sudeste 0 1010.5 1.7 71
2019-09-25 11:00:00 25.4 6 Sudeste 13 Sur 0 1010.2 2.1 62
2019-09-25 10:00:00 24.2 6 Oeste 13 Noroeste 0 1009.4 2 53
2019-09-25 09:00:00 22.7 8 Oeste 15 Noroeste 0 1008.8 1.6 57
2019-09-25 08:00:00 21.5 4 Noroeste 11 Noroeste 0 1008.1 1 62
2019-09-25 07:00:00 21.7 9 Oeste 15 Noroeste 0 1007.4 0.3 59
2019-09-25 06:00:00 21.3 6 Noroeste 15 Oeste 0 1007.2 -0.2 62
2019-09-25 05:00:00 21.6 8 Noroeste 17 Oeste 0 1007.1 -0.2 60
2019-09-25 04:00:00 22.4 8 Oeste 17 Noroeste 0 1007.1 -0.4 57
2019-09-25 03:00:00 23 9 Oeste 18 Oeste 0 1007.4 -0.5 56
2019-09-25 02:00:00 22.8 10 Oeste 19 Oeste 0 1007.3 -0.3 57
2019-09-25 01:00:00 22.6 6 Noroeste 13 Oeste 0 1007.5 -0.3 61
2019-09-25 00:00:00 22.2 5 Noroeste 11 Oeste 0 1007.9 0.4 65
2019-09-24 23:00:00 22.7 5 Oeste 9 Oeste 0 1007.6 0.4 66
2019-09-24 22:00:00 23.4 4 Noroeste 11 Noroeste 0 1007.8 0.6 64
2019-09-24 21:00:00 24.5 4 Norte 9 Nordeste 0 1007.5 0.1 64
2019-09-24 20:00:00 25 4 Nordeste 14 Nordeste 0 1007.2 -0.5 65
2019-09-24 19:00:00 26.3 6 Nordeste 17 Este 0 1007.2 -1 59
2019-09-24 18:00:00 27.8 7 Este 17 Este 0 1007.4 -1.3 45
2019-09-24 17:00:00 29.3 5 Este 16 Este 0 1007.7 -1.8 40
2019-09-24 16:00:00 29.9 7 Sudeste 17 Sudeste 0 1008.2 -2.1 34
2019-09-24 15:00:00 30.4 9 Sudeste 15 Sudeste 0 1008.7 -2 36
2019-09-24 14:00:00 29.6 7 Sudeste 18 Este 0 1009.5 -1.7 43
2019-09-24 13:00:00 29.2 7 Sudeste 13 Sur 0 1010.3 -0.8 43
2019-09-24 12:00:00 27 4 Sudoeste 10 Oeste 0 1010.7 -0.3 39
2019-09-24 11:00:00 23.6 4 Sur 10 Noroeste 0 1011.2 0.4 57
2019-09-24 10:00:00 21.3 5 Noroeste 19 Oeste 0 1011.1 0.6 66
2019-09-24 09:00:00 19 10 Oeste 19 Oeste 0 1011 0.2 76
2019-09-24 08:00:00 18.4 9 Oeste 17 Noroeste 0 1010.8 -0.4 82
2019-09-24 07:00:00 18.8 8 Oeste 18 Oeste 0 1010.5 -1.2 82
2019-09-24 06:00:00 19.1 10 Oeste 16 Oeste 0 1010.8 -1.5 81
2019-09-24 05:00:00 19.1 9 Oeste 16 Oeste 0 1011.2 -1.5 83
2019-09-24 04:00:00 19.6 6 Noroeste 13 Noroeste 0 1011.7 -1.1 84
2019-09-24 03:00:00 19.7 4 Noroeste 10 Noroeste 0 1012.3 -0.8 85
2019-09-24 02:00:00 20.3 6 Noroeste 11 Noroeste 0 1012.7 -0.8 82
2019-09-24 01:00:00 20.6 3 Noroeste 9 Noroeste 0 1012.8 -0.6 83
2019-09-24 00:00:00 21.6 6 Noroeste 12 Sudoeste 0 1013.1 0 82
2019-09-23 23:00:00 22 4 Sur 11 Sudoeste 0 1013.5 0.6 79
2019-09-23 22:00:00 22.5 4 Sur 8 Sur 0 1013.4 0.8 79
2019-09-23 21:00:00 22.9 4 Sur 12 Sur 0 1013.1 0.7 76
2019-09-23 20:00:00 23.6 6 Sur 15 Sudeste 0 1012.9 0.4 72
2019-09-23 19:00:00 24.5 8 Sur 18 Sur 0 1012.6 -0.1 67
2019-09-23 18:00:00 25.2 8 Sudeste 17 Este 0 1012.4 -0.7 61
2019-09-23 17:00:00 25.8 9 Sudeste 20 Este 0 1012.5 -0.8 62
2019-09-23 16:00:00 25.9 12 Sudeste 23 Este 0 1012.7 -1.2 61
2019-09-23 15:00:00 26.6 10 Sudeste 27 Sudeste 0 1013.1 -1.1 57
2019-09-23 14:00:00 27 13 Sudeste 25 Este 0 1013.3 -1.2 58
2019-09-23 13:00:00 27 10 Este 18 Sudeste 0 1013.9 -0.3 54
2019-09-23 12:00:00 26.2 5 Este 14 Norte 0 1014.2 0.5 45
2019-09-23 11:00:00 23.5 6 Noroeste 16 Noroeste 0 1014.5 1.5 44
2019-09-23 10:00:00 21.8 10 Oeste 21 Noroeste 0 1014.2 2.1 49
2019-09-23 09:00:00 19.1 8 Noroeste 18 Noroeste 0 1013.7 2.2 57
2019-09-23 08:00:00 18.6 9 Noroeste 18 Noroeste 0 1013 1.8 60
2019-09-23 07:00:00 19.2 11 Oeste 19 Oeste 0 1012.1 1.1 60
2019-09-23 06:00:00 18.9 10 Oeste 16 Noroeste 0 1011.5 0.8 65
2019-09-23 05:00:00 19.4 10 Oeste 15 Noroeste 0 1011.2 0.9 66
2019-09-23 04:00:00 20.1 9 Noroeste 18 Oeste 0 1011 0.9 66
2019-09-23 03:00:00 20.8 8 Noroeste 15 Oeste 0 1010.7 1.2 65
2019-09-23 02:00:00 21.6 7 Noroeste 12 Noroeste 0 1010.3 1.6 67
2019-09-23 01:00:00 22.1 7 Noroeste 12 Noroeste 0 1010.1 2 68
2019-09-23 00:00:00 23.6 3 Oeste 7 Sur 0 1009.5 2.1 60
2019-09-22 23:00:00 25 4 Oeste 12 Norte 0 1008.7 2.7 54
2019-09-22 22:00:00 25.8 5 Oeste 10 Oeste 0 1008.1 3.2 51
2019-09-22 21:00:00 27.3 5 Noroeste 28 Oeste 0 1007.4 3.2 44
2019-09-22 20:00:00 28.8 15 Noroeste 31 Oeste 0 1006 1.6 41
2019-09-22 19:00:00 30 15 Sudoeste 30 Sudoeste 0 1004.9 0.2 40
2019-09-22 18:00:00 30.2 7 Sur 17 Sur 0 1004.2 -0.7 48
2019-09-22 17:00:00 30.7 11 Sur 21 Sur 0 1004.4 -1.3 47
2019-09-22 16:00:00 30.8 16 Sur 27 Sudeste 0 1004.7 -1.5 48
2019-09-22 15:00:00 31.3 12 Sudeste 24 Sudeste 0 1004.9 -1.6 46
2019-09-22 14:00:00 30.4 12 Sur 23 Sur 0 1005.7 -0.8 45
2019-09-22 13:00:00 29.4 13 Sur 24 Sur 0 1006.2 -0.6 46
2019-09-22 12:00:00 28.5 10 Sudoeste 18 Sur 0 1006.5 0 49
2019-09-22 11:00:00 25.4 10 Oeste 18 Oeste 0 1006.5 0.5 54
2019-09-22 10:00:00 23 3 Nordeste 7 Nordeste 0 1006.8 1 83
2019-09-22 09:00:00 21.9 4 Norte 8 Norte 0 1006.5 0.6 90
2019-09-22 08:00:00 21.4 0 Calma 4 Norte 0 1006 0 91
2019-09-22 07:00:00 21.2 0 Calma 6 Norte 0 1005.8 -0.4 91
2019-09-22 06:00:00 21.2 0 Calma 4 Oeste 0 1005.9 -0.9 90
2019-09-22 05:00:00 21.5 0 Calma 3 Noroeste 0 1006 -0.7 89
2019-09-22 04:00:00 22.1 0 Calma 4 Norte 0 1006.2 -0.8 88
2019-09-22 03:00:00 22.5 4 Norte 5 Norte 0 1006.8 -0.1 87
2019-09-22 02:00:00 22.8 0 Calma 4 Sudoeste 0 1006.7 -0.5 85
2019-09-22 01:00:00 23.2 2 Sur 6 Sudeste 0 1007 -0.5 84
2019-09-22 00:00:00 23.3 3 Nordeste 9 Este 0 1006.9 0.1 84
2019-09-21 23:00:00 23.5 3 Nordeste 10 Este 0 1007.2 0.9 83
2019-09-21 22:00:00 23.7 4 Este 12 Este 0 1007.5 1.9 82
2019-09-21 21:00:00 23.9 6 Este 15 Este 0 1006.8 1.5 81
2019-09-21 20:00:00 24.7 7 Este 15 Este 0 1006.3 1.2 78
2019-09-21 19:00:00 25.9 7 Sudeste 15 Sudeste 0 1005.6 -0.1 69
2019-09-21 18:00:00 27.3 9 Sudeste 18 Sudeste 0 1005.3 -1.1 63
2019-09-21 17:00:00 27 8 Sur 17 Sur 0 1005.1 -2.2 56
2019-09-21 16:00:00 28.2 10 Sur 18 Sudeste 0 1005.7 -2.4 51
2019-09-21 15:00:00 28.3 6 Sudeste 17 Este 0 1006.4 -1.8 54
2019-09-21 14:00:00 27.5 10 Este 19 Este 0 1007.3 -0.9 58
2019-09-21 13:00:00 26.3 6 Sudeste 19 Este 0 1008.1 0.4 64
2019-09-21 12:00:00 25 7 Este 19 Este 0 1008.2 0 69
2019-09-21 11:00:00 23.6 5 Sudoeste 14 Oeste 0 1008.2 0 72
2019-09-21 10:00:00 21.2 8 Oeste 17 Oeste 0 1007.7 -0.8 79
2019-09-21 09:00:00 20.9 8 Norte 23 Oeste 0 1008.2 -0.5 78
2019-09-21 08:00:00 21 5 Noroeste 11 Noroeste 0 1008.2 -0.5 88
2019-09-21 07:00:00 21 3 Noroeste 11 Noroeste 0 1008.5 -0.4 90
2019-09-21 06:00:00 20.9 5 Noroeste 13 Oeste 0.4 1008.7 -0.8 88
2019-09-21 05:00:00 21.2 5 Noroeste 13 Oeste 1 1008.7 -1.2 91
2019-09-21 04:00:00 21.6 6 Noroeste 12 Oeste 0.2 1008.9 -0.9 88
2019-09-21 03:00:00 21.9 4 Norte 10 Noroeste 0 1009.5 -0.5 86
2019-09-21 02:00:00 21.9 4 Norte 8 Norte 0 1009.9 -1.4 84
2019-09-21 01:00:00 22.2 4 Norte 14 Norte 0 1009.8 -1.3 82
2019-09-21 00:00:00 22.4 10 Norte 16 Norte 0 1010 -0.8 81
2019-09-20 23:00:00 22.8 4 Noroeste 10 Nordeste 0 1011.3 0.6 82
2019-09-20 22:00:00 22.7 5 Nordeste 11 Nordeste 0 1011.1 0.2 85
2019-09-20 21:00:00 22.9 5 Nordeste 13 Este 0 1010.8 -0.1 87
2019-09-20 20:00:00 23 4 Este 29 Este 0 1010.7 -0.4 89
2019-09-20 19:00:00 25 11 Este 20 Este 0 1010.9 -0.8 78
2019-09-20 18:00:00 25.5 11 Este 19 Este 0 1010.9 -0.9 73
2019-09-20 17:00:00 25.7 6 Este 20 Sudeste 0 1011.1 -1 74
2019-09-20 16:00:00 25.6 11 Este 23 Sudeste 0 1011.7 -0.5 73
2019-09-20 15:00:00 26.5 10 Este 24 Sudeste 0 1011.8 -0.8 70
2019-09-20 14:00:00 26.9 10 Este 27 Sudeste 0 1012.1 -0.9 68
2019-09-20 13:00:00 26.6 10 Este 24 Este 0 1012.2 -0.9 67
2019-09-20 12:00:00 27 8 Este 17 Sudeste 0 1012.6 -0.3 62
2019-09-20 11:00:00 24.6 4 Norte 11 Noroeste 0 1013 0.4 72
2019-09-20 10:00:00 22.8 6 Noroeste 11 Oeste 0 1013.1 1.1 77
2019-09-20 09:00:00 21.5 5 Noroeste 9 Noroeste 0 1012.9 1 82
2019-09-20 08:00:00 20.8 4 Oeste 9 Oeste 0 1012.6 0.5 84
2019-09-20 07:00:00 20.6 4 Noroeste 10 Noroeste 0 1012 -0.3 84
2019-09-20 06:00:00 20.6 4 Noroeste 8 Noroeste 0 1011.9 -0.6 84
2019-09-20 05:00:00 20.8 5 Noroeste 8 Noroeste 0 1012.1 -0.8 84
2019-09-20 04:00:00 21.1 5 Noroeste 7 Oeste 0 1012.3 -0.4 84
2019-09-20 03:00:00 21.5 4 Noroeste 9 Noroeste 0 1012.5 -0.3 83
2019-09-20 02:00:00 22 5 Noroeste 9 Nordeste 0 1012.9 0.1 82
2019-09-20 01:00:00 22.8 5 Nordeste 9 Nordeste 0 1012.7 0.5 80
2019-09-20 00:00:00 23.2 4 Nordeste 10 Nordeste 0 1012.8 1 81
2019-09-19 23:00:00 23.3 5 Nordeste 10 Nordeste 0 1012.8 1.8 81
2019-09-19 22:00:00 23.3 4 Este 9 Sudeste 0 1012.2 1.1 80
2019-09-19 21:00:00 23.5 4 Nordeste 8 Sudeste 0 1011.8 1 80
2019-09-19 20:00:00 23.9 4 Este 15 Sudeste 0 1011 0 76
2019-09-19 19:00:00 24.9 6 Este 21 Este 0 1011.1 0.1 71
2019-09-19 18:00:00 26.2 8 Este 21 Este 0 1010.8 -0.6 62
2019-09-19 17:00:00 26.9 9 Este 19 Este 0 1011 -0.9 63
2019-09-19 16:00:00 27 12 Este 21 Sudeste 0 1011 -0.8 65
2019-09-19 15:00:00 26.6 12 Este 27 Sudeste 0 1011.4 -0.3 65
2019-09-19 14:00:00 27.9 11 Este 27 Sudeste 0 1011.9 -0.2 61
2019-09-19 13:00:00 27.7 10 Este 20 Este 0 1011.8 -0.1 59
2019-09-19 12:00:00 27.1 4 Este 12 Norte 0 1011.7 0.2 59
2019-09-19 11:00:00 24.7 5 Nordeste 12 Oeste 0 1012.1 1.1 66
2019-09-19 10:00:00 22 7 Oeste 13 Sudoeste 0 1011.9 1.2 63
2019-09-19 09:00:00 20.3 6 Noroeste 13 Oeste 0 1011.5 1.3 67
2019-09-19 08:00:00 19.5 6 Noroeste 14 Noroeste 0 1011 0.5 68
2019-09-19 07:00:00 19.7 7 Noroeste 15 Oeste 0 1010.7 0.1 67
2019-09-19 06:00:00 20 9 Oeste 18 Oeste 0 1010.2 -0.5 67
2019-09-19 05:00:00 20 8 Oeste 15 Oeste 0 1010.5 -0.2 69
2019-09-19 04:00:00 20.3 8 Noroeste 13 Oeste 0 1010.6 -0.1 68
2019-09-19 03:00:00 21.2 5 Noroeste 12 Noroeste 0 1010.7 0.2 65
2019-09-19 02:00:00 21.7 6 Noroeste 12 Noroeste 0 1010.7 0.2 64
2019-09-19 01:00:00 22.2 5 Noroeste 13 Oeste 0 1010.7 0.4 65
2019-09-19 00:00:00 22.7 6 Noroeste 17 Oeste 0 1010.5 0.7 64
2019-09-18 23:00:00 23.7 10 Oeste 18 Oeste 0 1010.5 0.8 60
2019-09-18 22:00:00 23.6 5 Oeste 9 Oeste 0 1010.3 1.1 75
2019-09-18 21:00:00 24.4 4 Sur 8 Sudoeste 0 1009.8 1.1 73
2019-09-18 20:00:00 25.5 3 Este 14 Este 0 1009.7 1.1 65
2019-09-18 19:00:00 27.4 5 Este 15 Este 0 1009.2 0.1 56
2019-09-18 18:00:00 28.3 10 Este 17 Este 0 1008.7 -0.9 50
2019-09-18 17:00:00 29.1 6 Este 15 Este 0 1008.6 -1.3 46
2019-09-18 16:00:00 30.2 10 Sudeste 17 Este 0 1009.1 -1 43
2019-09-18 15:00:00 29.9 8 Sudeste 19 Este 0 1009.6 -0.4 41
2019-09-18 14:00:00 29.3 9 Sudeste 20 Este 0 1009.9 0.2 45
2019-09-18 13:00:00 28.7 10 Sudeste 18 Este 0 1010.1 0.8 52
2019-09-18 12:00:00 29.2 7 Sudeste 13 Este 0 1010 1 42
2019-09-18 11:00:00 25.8 5 Norte 15 Noroeste 0 1009.7 1.1 48
2019-09-18 10:00:00 23 9 Oeste 18 Noroeste 0 1009.3 1.1 55
2019-09-18 09:00:00 21.3 7 Noroeste 12 Oeste 0 1009 1.1 60
2019-09-18 08:00:00 20.1 6 Noroeste 11 Oeste 0 1008.6 0.7 66
2019-09-18 07:00:00 20.5 6 Noroeste 15 Noroeste 0 1008.2 -0.4 62
2019-09-18 06:00:00 20.8 8 Noroeste 18 Oeste 0 1007.9 -1.3 63
2019-09-18 05:00:00 20.8 10 Oeste 19 Oeste 0 1007.9 -1.4 66
2019-09-18 04:00:00 21.4 7 Oeste 14 Oeste 0 1008.6 -0.4 65
2019-09-18 03:00:00 21.5 5 Noroeste 9 Noroeste 0 1009.2 0.3 71
2019-09-18 02:00:00 22.1 4 Norte 8 Oeste 0 1009.3 0.5 73
2019-09-18 01:00:00 22.6 3 Este 15 Sudoeste 0 1009 -1.5 69
2019-09-18 00:00:00 23.9 4 Sur 13 Nordeste 0 1008.9 -0.4 66
2019-09-17 23:00:00 23.5 8 Norte 17 Oeste 0 1008.8 0 61
2019-09-17 22:00:00 23 9 Oeste 17 Oeste 0 1010.5 2.1 82
2019-09-17 21:00:00 23.2 9 Sur 16 Sur 0 1009.3 0.6 83
2019-09-15 18:00:00 25.7 15 Nordeste 30 Nordeste 0 1013.3 -1.5 74
2019-09-15 17:00:00 27 12 Este 28 Este 0 1013.7 -1.3 69
2019-09-15 16:00:00 26.3 10 Nordeste 24 Nordeste 0 1014.2 -0.7 67
2019-09-15 15:00:00 26.9 10 Este 34 Este 0 1014.8 -0.9 64
2019-09-15 14:00:00 27 14 Este 31 Este 0 1015 -0.9 63
2019-09-15 13:00:00 27.3 9 Nordeste 28 Nordeste 0 1014.9 -0.9 56
2019-09-15 12:00:00 25.3 15 Norte 27 Nordeste 0 1015.7 0.2 59
2019-09-15 11:00:00 24.2 13 Norte 27 Norte 0 1015.9 0.7 60
2019-09-15 10:00:00 23.5 14 Nordeste 28 Norte 0 1015.8 0.8 63
2019-09-15 09:00:00 22.8 10 Norte 30 Nordeste 0 1015.5 0.6 71
2019-09-15 08:00:00 22.7 14 Norte 24 Norte 0 1015.2 0 74
2019-09-15 07:00:00 22.6 10 Norte 24 Norte 0 1015 -0.8 74
2019-09-15 06:00:00 22.4 10 Norte 23 Norte 0 1014.9 -1.7 72
2019-09-15 05:00:00 22.6 10 Norte 24 Nordeste 0 1015.2 -2.3 71
2019-09-15 04:00:00 22.7 11 Norte 26 Norte 0 1015.8 -0.7 68
2019-09-15 03:00:00 22.7 12 Norte 19 Norte 0 1016.6 0 67
2019-09-15 02:00:00 22.6 5 Nordeste 17 Nordeste 0 1017.5 -0.2 69
2019-09-15 01:00:00 22.8 8 Norte 15 Norte 0 1016.5 -0.3 61
2019-09-15 00:00:00 22.5 9 Norte 14 Noroeste 0 1016.6 0.5 63
2019-09-14 23:00:00 22.5 3 Nordeste 6 Norte 0 1017.7 1.7 66
2019-09-14 22:00:00 22.7 0 Calma 17 Nordeste 0 1016.8 0.5 68
2019-09-14 21:00:00 23 6 Nordeste 19 Nordeste 0 1016.1 -0.1 72
2019-09-14 20:00:00 23.7 7 Nordeste 24 Nordeste 0 1016 0.3 70
2019-09-14 19:00:00 24 11 Nordeste 32 Este 0 1016.3 -0.5 69
2019-09-14 18:00:00 25.1 11 Este 31 Este 0 1016.2 -1.4 66
2019-09-14 17:00:00 25.8 11 Nordeste 28 Nordeste 0 1015.7 -2.7 63
2019-09-14 16:00:00 25.7 12 Nordeste 30 Nordeste 0 1016.8 -1.9 63
2019-09-14 15:00:00 26.1 11 Nordeste 34 Este 0 1017.6 -0.2 52
2019-09-14 14:00:00 26.8 15 Nordeste 33 Nordeste 0 1018.4 1.4 43
2019-09-14 13:00:00 25.8 13 Nordeste 24 Nordeste 0 1018.7 0.1 47
2019-09-14 12:00:00 24.7 15 Norte 34 Nordeste 0 1017.8 -2.2 46
2019-09-14 11:00:00 23.5 16 Norte 28 Norte 0 1017 -2.6 49
2019-09-14 10:00:00 20.7 8 Nordeste 18 Noroeste 0 1018.6 0 63
2019-09-14 09:00:00 19.7 6 Noroeste 22 Oeste 0.2 1020 1.7 72
2019-09-14 08:00:00 19.9 15 Oeste 22 Oeste 0 1019.6 0.9 68
2019-09-14 07:00:00 19.4 10 Oeste 15 Oeste 0 1018.6 0.9 72
2019-09-14 06:00:00 19.4 8 Noroeste 16 Oeste 0 1018.3 -0.3 73
2019-09-14 05:00:00 20.1 8 Oeste 14 Noroeste 0 1018.7 -0.3 67
2019-09-14 04:00:00 19.8 5 Noroeste 13 Noroeste 0 1017.7 -1.9 67
2019-09-14 03:00:00 19.3 5 Noroeste 11 Noroeste 0 1018.6 -1.1 76
2019-09-14 02:00:00 18.9 6 Noroeste 17 Oeste 0 1019 -1.1 83
2019-09-14 01:00:00 19.1 4 Noroeste 15 Noroeste 0 1019.6 -0.1 84
2019-09-14 00:00:00 20.1 8 Norte 26 Nordeste 0 1019.7 -1.2 80